Terminal Aerodrome Forecast
Issued by NWS Charleston, WV

Current Version | Previous Version | Graphics & Text | Print | Product List | Glossary On
Versions: 1 2 3 4 5 6 7 8 9 10 11 12 13 14 15 16 17 18 19 20 21 22 23 24 25
192
FTUS41 KRLX 181855 AAA
TAFBKW
TAF AMD
KBKW 181855Z 1819/1918 23018G28KT P6SM OVC060
      TEMPO 1901/1903 4SM SHRA OVC025
     FM190300 20015G26KT 3SM SHRA OVC035
     FM190600 27020G38KT P6SM OVC008
     FM190700 28016G27KT P6SM OVC008
     FM190900 29017G29KT P6SM OVC015
     FM191100 29015G26KT P6SM OVC015
     FM191400 30014G24KT P6SM OVC015
     FM191500 30013G22KT P6SM OVC015=

USA.gov is the U.S. government's official web portal to all federal, state and local government web resources and services.